Latest Weather Observations for Kunanyi / Mount Wellington
Issued at 6:21 pm EST Wednesday 2 September 2026 (issued every 10 minutes, with the page automatically refreshed every 10 minutes)
| Station Details | ID: 094087 | Name: KUNANYI (MOUNT WELLINGTON PINNACLE) | Lat: -42.90 | Lon: 147.24 | Height: 1260.47 m |
| Date/Time EST |
Temp °C |
App Temp °C |
Dew Point °C |
Rel Hum % |
Delta-T °C |
Wind | Press QNH hPa |
Press MSL hPa |
Rain since 9am mm |
||||
|---|---|---|---|---|---|---|---|---|---|---|---|---|---|
| Dir | Spd km/h |
Gust km/h |
Spd kts |
Gust kts |
|||||||||
| 02/06:20pm | 3.0 | -7.2 | 3.0 | 100 | 0.0 | WNW | 46 | 61 | 25 | 33 | - | - | 0.2 |
| 02/06:00pm | 3.0 | -8.8 | 3.0 | 100 | 0.0 | WNW | 54 | 70 | 29 | 38 | - | - | 0.2 |
| 02/05:56pm | 3.0 | -8.0 | 3.0 | 100 | 0.0 | WNW | 50 | 69 | 27 | 37 | - | - | 0.2 |
| 02/05:51pm | 3.1 | -7.9 | 3.1 | 100 | 0.0 | WNW | 50 | 65 | 27 | 35 | - | - | 0.2 |
| 02/05:30pm | 3.2 | -6.6 | 3.2 | 100 | 0.0 | WNW | 44 | 57 | 24 | 31 | - | - | 0.0 |
| 02/05:20pm | 3.1 | -6.7 | 3.1 | 100 | 0.0 | WNW | 44 | 65 | 24 | 35 | - | - | 0.0 |
| 02/05:16pm | 3.2 | -6.4 | 3.2 | 100 | 0.0 | WNW | 43 | 59 | 23 | 32 | - | - | 0.0 |
| 02/05:00pm | 3.3 | -5.9 | 3.3 | 100 | 0.0 | WNW | 41 | 61 | 22 | 33 | - | - | 0.0 |
| 02/04:34pm | 3.3 | -5.6 | 3.2 | 99 | 0.0 | WNW | 39 | 57 | 21 | 31 | - | - | 0.0 |
| 02/04:30pm | 3.4 | -5.5 | 3.3 | 99 | 0.0 | WNW | 39 | 56 | 21 | 30 | - | - | 0.0 |
| 02/04:21pm | 3.3 | -6.0 | 3.2 | 99 | 0.0 | WNW | 41 | 54 | 22 | 29 | - | - | 0.0 |
| 02/04:03pm | 3.4 | -5.9 | 3.1 | 98 | 0.1 | NW | 41 | 59 | 22 | 32 | - | - | 0.0 |
| 02/04:00pm | 3.4 | -6.3 | 3.1 | 98 | 0.1 | NW | 43 | 59 | 23 | 32 | - | - | 0.0 |
| 02/03:46pm | 3.6 | -6.2 | 3.2 | 97 | 0.2 | WNW | 44 | 61 | 24 | 33 | - | - | 0.0 |
| 02/03:30pm | 3.8 | -6.8 | 2.9 | 94 | 0.4 | WNW | 48 | 67 | 26 | 36 | - | - | 0.0 |
| 02/03:21pm | 4.0 | -6.6 | 3.1 | 94 | 0.4 | WNW | 48 | 67 | 26 | 36 | - | - | 0.0 |
| 02/03:20pm | 4.0 | -7.0 | 3.0 | 93 | 0.4 | WNW | 50 | 67 | 27 | 36 | - | - | 0.0 |
| 02/03:00pm | 4.4 | -8.8 | 2.4 | 87 | 0.9 | W | 61 | 80 | 33 | 43 | - | - | 0.0 |
| 02/02:30pm | 4.6 | -10.1 | 2.3 | 85 | 1.0 | W | 69 | 87 | 37 | 47 | - | - | 0.0 |
| 02/02:00pm | 4.7 | -9.0 | 1.9 | 82 | 1.2 | W | 63 | 87 | 34 | 47 | - | - | 0.0 |
| 02/01:30pm | 5.4 | -7.5 | 1.9 | 78 | 1.5 | W | 59 | 95 | 32 | 51 | - | - | 0.0 |
| 02/01:00pm | 5.3 | -7.2 | 2.1 | 80 | 1.4 | W | 57 | 91 | 31 | 49 | - | - | 0.0 |
| 02/12:30pm | 5.0 | -7.3 | 1.8 | 80 | 1.4 | W | 56 | 83 | 30 | 45 | - | - | 0.0 |
| 02/12:00pm | 4.6 | -8.3 | 2.0 | 83 | 1.1 | W | 59 | 78 | 32 | 42 | - | - | 0.0 |
| 02/11:33am | 4.3 | -9.7 | 2.0 | 85 | 1.0 | W | 65 | 83 | 35 | 45 | - | - | 0.0 |
| 02/11:30am | 4.2 | -10.6 | 2.1 | 86 | 0.9 | W | 69 | 93 | 37 | 50 | - | - | 0.0 |
| 02/11:23am | 4.3 | -9.8 | 1.7 | 83 | 1.1 | W | 65 | 100 | 35 | 54 | - | - | 0.0 |
| 02/11:17am | 4.5 | -10.2 | 2.2 | 85 | 1.0 | W | 69 | 100 | 37 | 54 | - | - | 0.0 |
| 02/11:00am | 4.0 | -11.9 | 0.9 | 80 | 1.3 | W | 74 | 100 | 40 | 54 | - | - | 0.0 |
| 02/10:30am | 3.5 | -11.9 | 1.4 | 86 | 0.9 | W | 72 | 98 | 39 | 53 | - | - | 0.0 |
| 02/10:00am | 2.7 | -14.3 | 1.4 | 91 | 0.5 | W | 80 | 106 | 43 | 57 | - | - | 0.0 |
| 02/09:30am | 2.3 | -14.3 | 1.3 | 93 | 0.4 | W | 78 | 96 | 42 | 52 | - | - | 0.0 |
| 02/09:27am | 2.3 | -14.7 | 1.3 | 93 | 0.4 | W | 80 | 96 | 43 | 52 | - | - | 0.0 |
| 02/09:00am | 1.7 | -15.4 | 0.8 | 94 | 0.4 | W | 80 | 104 | 43 | 56 | - | - | 0.6 |
| 02/08:30am | 1.8 | -13.4 | 0.3 | 90 | 0.6 | W | 70 | 98 | 38 | 53 | - | - | 0.6 |
| 02/08:00am | 1.4 | -14.7 | -0.1 | 90 | 0.6 | W | 74 | 95 | 40 | 51 | - | - | 0.4 |
| 02/07:30am | 0.5 | -14.7 | -0.6 | 92 | 0.4 | W | 69 | 93 | 37 | 50 | - | - | 0.4 |
| 02/07:05am | 0.0 | -13.4 | -1.4 | 90 | 0.5 | W | 59 | 83 | 32 | 45 | - | - | 0.4 |
| 02/07:00am | -0.1 | -14.7 | -1.8 | 88 | 0.6 | W | 65 | 89 | 35 | 48 | - | - | 0.4 |
| 02/06:55am | 0.0 | -14.2 | -1.7 | 88 | 0.6 | W | 63 | 89 | 34 | 48 | - | - | 0.4 |
| 02/06:30am | -0.1 | -11.7 | -1.1 | 93 | 0.4 | W | 50 | 69 | 27 | 37 | - | - | 0.4 |
| 02/06:01am | 0.0 | -14.1 | -1.1 | 92 | 0.4 | W | 63 | 87 | 34 | 47 | - | - | 0.4 |
| 02/06:00am | -0.1 | -13.8 | -1.1 | 93 | 0.4 | W | 61 | 76 | 33 | 41 | - | - | 0.4 |
| 02/05:56am | 0.2 | -13.1 | -0.9 | 92 | 0.4 | W | 59 | 76 | 32 | 41 | - | - | 0.4 |
| 02/05:30am | 0.1 | -14.8 | -1.2 | 91 | 0.5 | W | 67 | 91 | 36 | 49 | - | - | 0.4 |
| 02/05:00am | -0.7 | -15.7 | -1.8 | 92 | 0.4 | W | 67 | 85 | 36 | 46 | - | - | 0.4 |
| 02/04:57am | -0.6 | -15.6 | -2.0 | 90 | 0.5 | WSW | 67 | 85 | 36 | 46 | - | - | 0.4 |
| 02/04:30am | -0.7 | -13.6 | -2.3 | 89 | 0.6 | WSW | 56 | 83 | 30 | 45 | - | - | 0.4 |
| 02/04:00am | -0.3 | -13.6 | -1.0 | 95 | 0.3 | WSW | 59 | 85 | 32 | 46 | - | - | 0.4 |
| 02/03:30am | -0.7 | -12.1 | -2.3 | 89 | 0.6 | W | 48 | 69 | 26 | 37 | - | - | 0.4 |
| 02/03:28am | -0.5 | -12.3 | -2.1 | 89 | 0.6 | W | 50 | 69 | 27 | 37 | - | - | 0.4 |
| 02/03:24am | -0.5 | -12.6 | -1.8 | 91 | 0.5 | W | 52 | 69 | 28 | 37 | - | - | 0.4 |
| 02/03:00am | -0.5 | -11.9 | -2.1 | 89 | 0.6 | W | 48 | 69 | 26 | 37 | - | - | 0.4 |
| 02/02:30am | -0.4 | -11.3 | -1.2 | 94 | 0.3 | WSW | 46 | 63 | 25 | 34 | - | - | 0.4 |
| 02/02:00am | -0.3 | -13.4 | -1.9 | 89 | 0.6 | WSW | 57 | 76 | 31 | 41 | - | - | 0.4 |
| 02/01:50am | -0.2 | -12.6 | -0.9 | 95 | 0.3 | WSW | 54 | 72 | 29 | 39 | - | - | 0.4 |
| 02/01:47am | -0.1 | -12.0 | -0.5 | 97 | 0.2 | WSW | 52 | 65 | 28 | 35 | - | - | 0.4 |
| 02/01:30am | 0.0 | -10.4 | -0.4 | 97 | 0.2 | WSW | 44 | 63 | 24 | 34 | - | - | 0.4 |
| 02/01:04am | -0.1 | -9.6 | -0.8 | 95 | 0.3 | WSW | 39 | 59 | 21 | 32 | - | - | 0.4 |
| 02/01:00am | 0.0 | -8.7 | -0.8 | 94 | 0.3 | WSW | 35 | 50 | 19 | 27 | - | - | 0.4 |
| 02/12:45am | 0.5 | -8.9 | -0.2 | 95 | 0.3 | WSW | 39 | 56 | 21 | 30 | - | - | 0.4 |
| 02/12:41am | 0.6 | -9.2 | -0.4 | 93 | 0.4 | WSW | 41 | 56 | 22 | 30 | - | - | 0.4 |
| 02/12:31am | 1.0 | -9.2 | 0.7 | 98 | 0.1 | WSW | 44 | 63 | 24 | 34 | - | - | 0.4 |
| 02/12:30am | 1.0 | -9.6 | 0.9 | 99 | 0.0 | WSW | 46 | 63 | 25 | 34 | - | - | 0.4 |
| 02/12:28am | 1.0 | -9.6 | 0.7 | 98 | 0.1 | WSW | 46 | 63 | 25 | 34 | - | - | 0.4 |
| 02/12:08am | 1.5 | -8.1 | 1.4 | 99 | 0.0 | WSW | 41 | 59 | 22 | 32 | - | - | 0.4 |
| 02/12:00am | 1.6 | -8.9 | 1.3 | 98 | 0.1 | WSW | 46 | 61 | 25 | 33 | - | - | 0.4 |
| Date/Time EST |
Temp °C |
App Temp °C |
Dew Point °C |
Rel Hum % |
Delta-T °C |
Wind | Press QNH hPa |
Press MSL hPa |
Rain since 9am mm |
||||
|---|---|---|---|---|---|---|---|---|---|---|---|---|---|
| Dir | Spd km/h |
Gust km/h |
Spd kts |
Gust kts |
|||||||||
| 01/11:56pm | 1.8 | -9.1 | 1.5 | 98 | 0.1 | WSW | 48 | 61 | 26 | 33 | - | - | 0.4 |
| 01/11:30pm | 2.4 | -8.9 | 1.4 | 93 | 0.4 | W | 50 | 78 | 27 | 42 | - | - | 0.4 |
| 01/11:00pm | 2.8 | -10.5 | 1.8 | 93 | 0.4 | W | 61 | 91 | 33 | 49 | - | - | 0.4 |
| 01/10:30pm | 3.8 | -8.3 | 3.1 | 95 | 0.3 | W | 56 | 80 | 30 | 43 | - | - | 0.4 |
| 01/10:05pm | 4.5 | -7.1 | 3.9 | 96 | 0.3 | W | 54 | 80 | 29 | 43 | - | - | 0.4 |
| 01/10:00pm | 4.6 | -7.0 | 4.0 | 96 | 0.3 | WSW | 54 | 80 | 29 | 43 | - | - | 0.4 |
| 01/09:55pm | 4.6 | -7.3 | 4.3 | 98 | 0.1 | W | 56 | 78 | 30 | 42 | - | - | 0.4 |
| 01/09:53pm | 4.6 | -7.5 | 4.3 | 98 | 0.1 | W | 57 | 85 | 31 | 46 | - | - | 0.4 |
| 01/09:30pm | 4.8 | -9.1 | 4.7 | 99 | 0.0 | W | 67 | 85 | 36 | 46 | - | - | 0.4 |
| 01/09:00pm | 5.2 | -7.5 | 5.2 | 100 | 0.0 | W | 61 | 82 | 33 | 44 | - | - | 0.4 |
| 01/08:30pm | 5.2 | -8.2 | 5.2 | 100 | 0.0 | W | 65 | 91 | 35 | 49 | - | - | 0.4 |
| 01/08:00pm | 5.1 | -10.4 | 5.1 | 100 | 0.0 | WNW | 76 | 93 | 41 | 50 | - | - | 0.4 |
| 01/07:30pm | 5.0 | -10.6 | 5.0 | 100 | 0.0 | WNW | 76 | 100 | 41 | 54 | - | - | 0.2 |
| 01/07:00pm | 4.7 | -10.9 | 4.7 | 100 | 0.0 | WNW | 76 | 96 | 41 | 52 | - | - | 0.2 |
| 01/06:30pm | 4.8 | -10.8 | 4.8 | 100 | 0.0 | WNW | 76 | 102 | 41 | 55 | - | - | 0.2 |
| 01/06:00pm | 4.8 | -9.7 | 4.7 | 99 | 0.0 | WNW | 70 | 93 | 38 | 50 | - | - | 0.0 |
| 01/05:30pm | 4.8 | -10.1 | 4.5 | 98 | 0.1 | WNW | 72 | 91 | 39 | 49 | - | - | 0.0 |
| 01/05:00pm | 5.1 | -8.9 | 4.2 | 94 | 0.4 | WNW | 67 | 87 | 36 | 47 | - | - | 0.0 |
| 01/04:30pm | 5.3 | -9.3 | 4.0 | 91 | 0.6 | WNW | 70 | 95 | 38 | 51 | - | - | 0.0 |
| 01/04:00pm | 5.8 | -10.0 | 3.8 | 87 | 0.9 | NW | 76 | 98 | 41 | 53 | - | - | 0.0 |
| 01/03:30pm | 6.0 | -11.0 | 3.2 | 82 | 1.3 | NW | 82 | 107 | 44 | 58 | - | - | 0.0 |
| 01/03:00pm | 6.4 | -9.6 | 2.9 | 78 | 1.6 | NW | 76 | 100 | 41 | 54 | - | - | 0.0 |
| 01/02:30pm | 7.6 | -6.4 | 2.1 | 68 | 2.5 | WNW | 65 | 85 | 35 | 46 | - | - | 0.0 |
| 01/02:00pm | 7.4 | -3.9 | 1.3 | 65 | 2.7 | NW | 50 | 74 | 27 | 40 | - | - | 0.0 |
| 01/01:30pm | 7.3 | -4.8 | 1.0 | 64 | 2.7 | WNW | 54 | 78 | 29 | 42 | - | - | 0.0 |
| 01/01:00pm | 7.0 | -5.6 | 0.2 | 62 | 2.9 | WNW | 56 | 80 | 30 | 43 | - | - | 0.0 |
| 01/12:30pm | 7.0 | -6.1 | 0.9 | 65 | 2.6 | NW | 59 | 78 | 32 | 42 | - | - | 0.0 |
| 01/12:00pm | 6.9 | -7.3 | 0.8 | 65 | 2.6 | NW | 65 | 87 | 35 | 47 | - | - | 0.0 |
| 01/11:30am | 6.2 | -7.3 | 0.7 | 68 | 2.3 | NW | 61 | 83 | 33 | 45 | - | - | 0.0 |
| 01/11:00am | 6.1 | -6.6 | -0.4 | 63 | 2.7 | WNW | 56 | 76 | 30 | 41 | - | - | 0.0 |
| 01/10:39am | 5.6 | -7.3 | -0.7 | 64 | 2.6 | WNW | 57 | 76 | 31 | 41 | - | - | 0.0 |
| 01/10:32am | 5.3 | -8.1 | -1.2 | 63 | 2.6 | WNW | 59 | 74 | 32 | 40 | - | - | 0.0 |
| 01/10:30am | 5.4 | -7.6 | -1.3 | 62 | 2.7 | WNW | 57 | 74 | 31 | 40 | - | - | 0.0 |
| 01/10:12am | 5.4 | -7.6 | -1.3 | 62 | 2.7 | WNW | 57 | 76 | 31 | 41 | - | - | 0.0 |
| 01/10:09am | 5.3 | -8.1 | -1.4 | 62 | 2.7 | WNW | 59 | 74 | 32 | 40 | - | - | 0.0 |
| 01/10:00am | 5.4 | -8.0 | -1.3 | 62 | 2.7 | WNW | 59 | 72 | 32 | 39 | - | - | 0.0 |
| 01/09:37am | 5.1 | -8.7 | -1.3 | 63 | 2.6 | WNW | 61 | 80 | 33 | 43 | - | - | 0.0 |
| 01/09:30am | 4.4 | -10.2 | -1.6 | 65 | 2.4 | WNW | 65 | 80 | 35 | 43 | - | - | 0.0 |
| 01/09:27am | 4.5 | -10.1 | -1.9 | 63 | 2.5 | WNW | 65 | 80 | 35 | 43 | - | - | 0.0 |
| 01/09:03am | 4.2 | -11.2 | -2.4 | 62 | 2.6 | WNW | 69 | 87 | 37 | 47 | - | - | 0.0 |
| 01/09:00am | 4.4 | -11.0 | -2.4 | 61 | 2.6 | WNW | 69 | 83 | 37 | 45 | - | - | 0.0 |
| 01/08:37am | 4.1 | -12.0 | -3.0 | 60 | 2.7 | WNW | 72 | 87 | 39 | 47 | - | - | 0.0 |
| 01/08:30am | 4.0 | -12.1 | -3.0 | 60 | 2.7 | WNW | 72 | 89 | 39 | 48 | - | - | 0.0 |
| 01/08:03am | 3.9 | -12.2 | -3.4 | 59 | 2.7 | WNW | 72 | 91 | 39 | 49 | - | - | 0.0 |
| 01/08:00am | 3.8 | -12.3 | -3.5 | 59 | 2.7 | WNW | 72 | 87 | 39 | 47 | - | - | 0.0 |
| 01/07:34am | 3.6 | -12.6 | -4.1 | 57 | 2.8 | WNW | 72 | 89 | 39 | 48 | - | - | 0.0 |
| 01/07:30am | 3.7 | -12.9 | -4.2 | 56 | 2.9 | WNW | 74 | 89 | 40 | 48 | - | - | 0.0 |
| 01/07:22am | 3.9 | -12.0 | -4.5 | 54 | 3.1 | WNW | 70 | 89 | 38 | 48 | - | - | 0.0 |
| 01/07:01am | 3.6 | -12.0 | -4.3 | 56 | 2.9 | WNW | 69 | 83 | 37 | 45 | - | - | 0.0 |
| 01/07:00am | 3.5 | -12.2 | -4.4 | 56 | 2.9 | WNW | 69 | 83 | 37 | 45 | - | - | 0.0 |
| 01/06:37am | 4.0 | -12.3 | -5.2 | 51 | 3.3 | WNW | 72 | 95 | 39 | 51 | - | - | 0.0 |
| 01/06:35am | 3.8 | -12.5 | -5.1 | 52 | 3.2 | WNW | 72 | 87 | 39 | 47 | - | - | 0.0 |
| 01/06:30am | 4.0 | -12.0 | -5.5 | 50 | 3.4 | WNW | 70 | 87 | 38 | 47 | - | - | 0.0 |
| 01/06:00am | 3.3 | -11.5 | -3.9 | 59 | 2.7 | WNW | 65 | 83 | 35 | 45 | - | - | 0.0 |
| 01/05:30am | 4.0 | -10.8 | -4.0 | 56 | 3.0 | WNW | 65 | 83 | 35 | 45 | - | - | 0.0 |
| 01/05:00am | 4.0 | -9.5 | -2.4 | 63 | 2.5 | WNW | 59 | 78 | 32 | 42 | - | - | 0.0 |
| 01/04:41am | 4.0 | -9.7 | -1.2 | 69 | 2.1 | WNW | 61 | 80 | 33 | 43 | - | - | 0.0 |
| 01/04:30am | 4.2 | -10.4 | -1.8 | 65 | 2.4 | WNW | 65 | 80 | 35 | 43 | - | - | 0.0 |
| 01/04:00am | 4.3 | -9.3 | -0.5 | 71 | 1.9 | WNW | 61 | 80 | 33 | 43 | - | - | 0.0 |
| 01/03:57am | 4.4 | -9.6 | 0.0 | 73 | 1.8 | WNW | 63 | 78 | 34 | 42 | - | - | 0.0 |
| 01/03:42am | 4.7 | -8.5 | -0.1 | 71 | 2.0 | WNW | 59 | 78 | 32 | 42 | - | - | 0.0 |
| 01/03:37am | 4.5 | -8.6 | 0.3 | 74 | 1.7 | WNW | 59 | 74 | 32 | 40 | - | - | 0.0 |
| 01/03:30am | 4.7 | -8.1 | 0.3 | 73 | 1.8 | WNW | 57 | 72 | 31 | 39 | - | - | 0.0 |
| 01/03:27am | 4.7 | -7.5 | 0.5 | 74 | 1.8 | WNW | 54 | 72 | 29 | 39 | - | - | 0.0 |
| 01/03:21am | 4.5 | -7.2 | 1.2 | 79 | 1.4 | WNW | 52 | 67 | 28 | 36 | - | - | 0.0 |
| 01/03:07am | 4.3 | -7.8 | 1.2 | 80 | 1.3 | WNW | 54 | 72 | 29 | 39 | - | - | 0.0 |
| 01/03:00am | 4.4 | -8.0 | 1.4 | 81 | 1.3 | WNW | 56 | 70 | 30 | 38 | - | - | 0.0 |
| 01/02:43am | 4.5 | -7.8 | 2.0 | 84 | 1.1 | W | 56 | 70 | 30 | 38 | - | - | 0.0 |
| 01/02:30am | 4.7 | -7.6 | 2.1 | 83 | 1.1 | W | 56 | 76 | 30 | 41 | - | - | 0.0 |
| 01/02:12am | 5.0 | -6.9 | 2.4 | 83 | 1.1 | W | 54 | 72 | 29 | 39 | - | - | 0.0 |
| 01/02:10am | 5.1 | -7.1 | 2.5 | 83 | 1.1 | W | 56 | 72 | 30 | 39 | - | - | 0.0 |
| 01/02:00am | 5.2 | -7.0 | 2.4 | 82 | 1.2 | W | 56 | 76 | 30 | 41 | - | - | 0.0 |
| 01/01:30am | 5.4 | -7.1 | 2.2 | 80 | 1.4 | W | 57 | 74 | 31 | 40 | - | - | 0.0 |
| 01/01:19am | 5.5 | -7.3 | 2.5 | 81 | 1.3 | W | 59 | 78 | 32 | 42 | - | - | 0.0 |
| 01/01:13am | 5.3 | -7.2 | 2.1 | 80 | 1.4 | W | 57 | 74 | 31 | 40 | - | - | 0.0 |
| 01/01:01am | 5.5 | -7.4 | 1.8 | 77 | 1.6 | W | 59 | 78 | 32 | 42 | - | - | 0.0 |
| 01/01:00am | 5.5 | -7.4 | 1.6 | 76 | 1.7 | W | 59 | 76 | 32 | 41 | - | - | 0.0 |
| 01/12:57am | 5.4 | -7.2 | 1.5 | 76 | 1.7 | W | 57 | 70 | 31 | 38 | - | - | 0.0 |
| 01/12:44am | 5.4 | -6.8 | 0.2 | 69 | 2.2 | W | 54 | 72 | 29 | 39 | - | - | 0.0 |
| 01/12:30am | 5.9 | -5.4 | -1.7 | 58 | 3.0 | W | 48 | 63 | 26 | 34 | - | - | 0.0 |
| 01/12:00am | 6.1 | -6.9 | -2.5 | 54 | 3.4 | W | 56 | 67 | 30 | 36 | - | - | 0.0 |
| Date/Time EST |
Temp °C |
App Temp °C |
Dew Point °C |
Rel Hum % |
Delta-T °C |
Wind | Press QNH hPa |
Press MSL hPa |
Rain since 9am mm |
||||
|---|---|---|---|---|---|---|---|---|---|---|---|---|---|
| Dir | Spd km/h |
Gust km/h |
Spd kts |
Gust kts |
|||||||||
| 31/11:30pm | 5.7 | -5.3 | -2.4 | 56 | 3.2 | W | 46 | 59 | 25 | 32 | - | - | 0.0 |
| 31/11:27pm | 5.8 | -5.3 | -2.5 | 55 | 3.3 | W | 46 | 57 | 25 | 31 | - | - | 0.0 |
| 31/11:08pm | 6.2 | -4.5 | -2.4 | 54 | 3.4 | W | 44 | 67 | 24 | 36 | - | - | 0.0 |
| 31/11:00pm | 5.8 | -4.9 | -2.3 | 56 | 3.2 | W | 44 | 56 | 24 | 30 | - | - | 0.0 |
| 31/10:30pm | 5.1 | -4.8 | -3.7 | 53 | 3.3 | W | 39 | 48 | 21 | 26 | - | - | 0.0 |
| 31/10:00pm | 6.0 | -3.4 | -6.9 | 39 | 4.6 | W | 35 | 48 | 19 | 26 | - | - | 0.0 |
| 31/09:30pm | 5.7 | -3.9 | -8.9 | 34 | 4.9 | W | 35 | 44 | 19 | 24 | - | - | 0.0 |
| 31/09:00pm | 6.0 | -3.6 | -13.5 | 23 | 5.8 | WNW | 33 | 43 | 18 | 23 | - | - | 0.0 |
| 31/08:30pm | 5.6 | -3.4 | -7.9 | 37 | 4.6 | WNW | 32 | 43 | 17 | 23 | - | - | 0.0 |
| 31/08:00pm | 6.3 | -2.5 | -10.8 | 28 | 5.5 | WNW | 30 | 37 | 16 | 20 | - | - | 0.0 |
| 31/07:30pm | 6.8 | -2.5 | -12.8 | 23 | 6.1 | WNW | 32 | 39 | 17 | 21 | - | - | 0.0 |
| 31/07:00pm | 6.8 | -2.1 | -7.6 | 35 | 5.0 | WNW | 32 | 39 | 17 | 21 | - | - | 0.0 |
| 31/06:30pm | 5.7 | -3.6 | -5.6 | 44 | 4.1 | W | 35 | 44 | 19 | 24 | - | - | 0.0 |
| 31/06:00pm | 6.2 | -3.1 | -5.1 | 44 | 4.2 | W | 35 | 44 | 19 | 24 | - | - | 0.0 |
| 31/05:30pm | 6.7 | -1.9 | -4.4 | 45 | 4.2 | W | 32 | 41 | 17 | 22 | - | - | 0.0 |
| 31/05:00pm | 7.8 | -0.8 | -4.0 | 43 | 4.6 | W | 32 | 43 | 17 | 23 | - | - | 0.0 |
| 31/04:30pm | 7.6 | -1.6 | -4.5 | 42 | 4.6 | WSW | 35 | 46 | 19 | 25 | - | - | 0.0 |
| 31/04:00pm | 8.4 | -0.1 | -3.4 | 43 | 4.7 | WSW | 32 | 39 | 17 | 21 | - | - | 0.0 |
| 31/03:30pm | 9.0 | 1.2 | -1.1 | 49 | 4.2 | WSW | 30 | 37 | 16 | 20 | - | - | 0.0 |
| 31/03:00pm | 10.0 | 3.0 | -0.8 | 47 | 4.6 | WSW | 26 | 35 | 14 | 19 | - | - | 0.0 |
| 31/02:30pm | 10.1 | 2.6 | -1.6 | 44 | 4.9 | WSW | 28 | 43 | 15 | 23 | - | - | 0.0 |
| 31/02:00pm | 10.6 | 1.1 | -0.8 | 45 | 4.9 | WSW | 39 | 52 | 21 | 28 | - | - | 0.0 |
| 31/01:30pm | 10.7 | 0.6 | 0.2 | 48 | 4.6 | WSW | 43 | 54 | 23 | 29 | - | - | 0.0 |
| 31/01:00pm | 10.3 | 0.0 | -1.1 | 45 | 4.9 | WSW | 43 | 56 | 23 | 30 | - | - | 0.0 |
| 31/12:30pm | 9.3 | -1.7 | -1.7 | 46 | 4.6 | WSW | 46 | 56 | 25 | 30 | - | - | 0.0 |
| 31/12:00pm | 8.7 | -2.6 | -1.4 | 49 | 4.2 | WSW | 48 | 59 | 26 | 32 | - | - | 0.0 |
| 31/11:30am | 8.8 | -3.0 | -2.5 | 45 | 4.6 | WSW | 50 | 61 | 27 | 33 | - | - | 0.0 |
| 31/11:00am | 8.4 | -3.1 | -3.1 | 44 | 4.6 | WSW | 48 | 65 | 26 | 35 | - | - | 0.0 |
| 31/10:39am | 8.5 | -5.3 | -5.3 | 37 | 5.2 | WSW | 59 | 70 | 32 | 38 | - | - | 0.0 |
| 31/10:30am | 8.6 | -4.6 | -4.6 | 39 | 5.1 | WSW | 56 | 70 | 30 | 38 | - | - | 0.0 |
| 31/10:22am | 8.3 | -5.5 | -4.5 | 40 | 4.9 | WSW | 59 | 78 | 32 | 42 | - | - | 0.0 |
| 31/10:00am | 6.6 | -8.1 | -3.1 | 50 | 3.8 | WSW | 65 | 78 | 35 | 42 | - | - | 0.0 |
| 31/09:30am | 6.2 | -7.0 | -3.2 | 51 | 3.6 | WSW | 57 | 74 | 31 | 40 | - | - | 0.0 |
| 31/09:22am | 6.2 | -7.3 | -2.4 | 54 | 3.4 | WSW | 59 | 74 | 32 | 40 | - | - | 0.0 |
| 31/09:02am | 6.1 | -7.1 | -2.7 | 53 | 3.5 | WSW | 57 | 76 | 31 | 41 | - | - | 0.0 |
| 31/09:00am | 5.7 | -7.5 | -2.9 | 54 | 3.3 | WSW | 57 | 72 | 31 | 39 | - | - | 0.0 |
| 31/08:30am | 4.6 | -8.6 | -2.5 | 60 | 2.8 | WSW | 57 | 72 | 31 | 39 | - | - | 0.0 |
| 31/08:20am | 3.9 | -9.1 | -1.3 | 69 | 2.1 | WSW | 57 | 76 | 31 | 41 | - | - | 0.0 |
| 31/08:00am | 3.7 | -10.1 | -1.6 | 68 | 2.1 | WSW | 61 | 74 | 33 | 40 | - | - | 0.0 |
| 31/07:30am | 3.5 | -10.3 | -1.6 | 69 | 2.0 | SW | 61 | 76 | 33 | 41 | - | - | 0.0 |
| 31/07:00am | 3.2 | -10.6 | -1.3 | 72 | 1.8 | SW | 61 | 70 | 33 | 38 | - | - | 0.0 |
| 31/06:34am | 3.9 | -11.1 | -1.9 | 66 | 2.3 | SW | 67 | 80 | 36 | 43 | - | - | 0.0 |
| 31/06:30am | 4.5 | -10.5 | -2.4 | 61 | 2.7 | SW | 67 | 80 | 36 | 43 | - | - | 0.0 |
| 31/06:24am | 4.1 | -10.5 | -2.1 | 64 | 2.4 | SW | 65 | 83 | 35 | 45 | - | - | 0.0 |
| 31/06:00am | 4.0 | -11.0 | -2.4 | 63 | 2.5 | SW | 67 | 76 | 36 | 41 | - | - | 0.0 |
| 31/05:30am | 3.7 | -10.7 | -3.1 | 61 | 2.6 | SW | 63 | 74 | 34 | 40 | - | - | 0.0 |
| 31/05:00am | 4.1 | -9.9 | -3.0 | 60 | 2.7 | SW | 61 | 72 | 33 | 39 | - | - | 0.0 |
| 31/04:30am | 3.9 | -10.1 | -3.1 | 60 | 2.7 | WSW | 61 | 76 | 33 | 41 | - | - | 0.0 |
| 31/04:00am | 3.3 | -10.1 | -1.6 | 70 | 1.9 | WSW | 59 | 74 | 32 | 40 | - | - | 0.0 |
| 31/03:55am | 3.4 | -10.4 | -1.7 | 69 | 2.0 | WSW | 61 | 74 | 33 | 40 | - | - | 0.0 |
| 31/03:44am | 3.1 | -9.9 | -1.4 | 72 | 1.8 | WSW | 57 | 76 | 31 | 41 | - | - | 0.0 |
| 31/03:30am | 3.7 | -9.4 | -1.8 | 67 | 2.1 | SW | 57 | 72 | 31 | 39 | - | - | 0.0 |
| 31/03:25am | 3.5 | -9.6 | -1.8 | 68 | 2.1 | WSW | 57 | 72 | 31 | 39 | - | - | 0.0 |
| 31/03:06am | 4.0 | -8.9 | -2.0 | 65 | 2.3 | WSW | 56 | 76 | 30 | 41 | - | - | 0.0 |
| 31/03:00am | 3.7 | -9.4 | -2.0 | 66 | 2.2 | WSW | 57 | 72 | 31 | 39 | - | - | 0.0 |
| 31/02:37am | 4.3 | -9.6 | -2.5 | 61 | 2.6 | WSW | 61 | 76 | 33 | 41 | - | - | 0.0 |
| 31/02:30am | 4.8 | -9.5 | -2.5 | 59 | 2.8 | WSW | 63 | 80 | 34 | 43 | - | - | 0.0 |
| 31/02:09am | 4.3 | -8.7 | -3.2 | 58 | 2.8 | WSW | 56 | 74 | 30 | 40 | - | - | 0.0 |
| 31/02:07am | 4.6 | -8.7 | -3.4 | 56 | 3.0 | WSW | 57 | 74 | 31 | 40 | - | - | 0.0 |
| 31/02:00am | 4.1 | -8.6 | -3.9 | 56 | 3.0 | WSW | 54 | 69 | 29 | 37 | - | - | 0.0 |
| 31/01:48am | 4.3 | -8.4 | -3.7 | 56 | 3.0 | WSW | 54 | 76 | 29 | 41 | - | - | 0.0 |
| 31/01:30am | 3.9 | -8.3 | -2.7 | 62 | 2.5 | WSW | 52 | 69 | 28 | 37 | - | - | 0.0 |
| 31/01:13am | 4.0 | -9.9 | -2.8 | 61 | 2.6 | WSW | 61 | 76 | 33 | 41 | - | - | 0.0 |
| 31/01:03am | 3.7 | -9.4 | -2.3 | 65 | 2.3 | WSW | 57 | 76 | 31 | 41 | - | - | 0.0 |
| 31/01:00am | 3.7 | -9.4 | -2.3 | 65 | 2.3 | WSW | 57 | 74 | 31 | 40 | - | - | 0.0 |
| 31/12:30am | 3.6 | -10.3 | -2.1 | 66 | 2.2 | WSW | 61 | 76 | 33 | 41 | - | - | 0.0 |
| 31/12:00am | 3.6 | -9.6 | -2.8 | 63 | 2.4 | WSW | 57 | 72 | 31 | 39 | - | - | 0.0 |
| Date/Time EST |
Temp °C |
App Temp °C |
Dew Point °C |
Rel Hum % |
Delta-T °C |
Wind | Press QNH hPa |
Press MSL hPa |
Rain since 9am mm |
||||
|---|---|---|---|---|---|---|---|---|---|---|---|---|---|
| Dir | Spd km/h |
Gust km/h |
Spd kts |
Gust kts |
|||||||||
| 30/11:49pm | 3.7 | -9.6 | -3.6 | 59 | 2.7 | WSW | 57 | 76 | 31 | 41 | - | - | 0.0 |
| 30/11:30pm | 2.9 | -10.9 | -1.6 | 72 | 1.8 | WSW | 61 | 76 | 33 | 41 | - | - | 0.0 |
| 30/11:00pm | 2.7 | -9.7 | -1.3 | 75 | 1.6 | WSW | 54 | 69 | 29 | 37 | - | - | 0.0 |
| 30/10:59pm | 2.7 | -9.8 | -1.5 | 74 | 1.6 | WSW | 54 | 69 | 29 | 37 | - | - | 0.0 |
| 30/10:30pm | 2.8 | -10.2 | -1.2 | 75 | 1.6 | WSW | 57 | 76 | 31 | 41 | - | - | 0.0 |
| 30/10:28pm | 3.0 | -10.0 | -1.2 | 74 | 1.7 | WSW | 57 | 76 | 31 | 41 | - | - | 0.0 |
| 30/10:18pm | 2.9 | -10.8 | -1.1 | 75 | 1.6 | WSW | 61 | 78 | 33 | 42 | - | - | 0.0 |
| 30/10:00pm | 3.3 | -10.5 | -1.3 | 72 | 1.8 | WSW | 61 | 74 | 33 | 40 | - | - | 0.0 |
| 30/09:49pm | 3.6 | -10.5 | -1.3 | 70 | 1.9 | WSW | 63 | 83 | 34 | 45 | - | - | 0.0 |
| 30/09:40pm | 3.3 | -10.5 | -1.4 | 71 | 1.8 | WSW | 61 | 76 | 33 | 41 | - | - | 0.0 |
| 30/09:30pm | 3.5 | -9.9 | -1.8 | 68 | 2.1 | WSW | 59 | 78 | 32 | 42 | - | - | 0.0 |
| 30/09:00pm | 3.8 | -10.1 | -2.2 | 65 | 2.3 | WSW | 61 | 80 | 33 | 43 | - | - | 0.0 |
| 30/08:56pm | 3.3 | -10.9 | -1.6 | 70 | 1.9 | WSW | 63 | 82 | 34 | 44 | - | - | 0.0 |
| 30/08:52pm | 3.6 | -11.0 | -1.7 | 68 | 2.1 | WSW | 65 | 82 | 35 | 44 | - | - | 0.0 |
| 30/08:30pm | 3.3 | -10.5 | -1.3 | 72 | 1.8 | WSW | 61 | 78 | 33 | 42 | - | - | 0.0 |
| 30/08:00pm | 3.3 | -11.1 | -0.7 | 75 | 1.6 | WSW | 65 | 78 | 35 | 42 | - | - | 0.0 |
| 30/07:30pm | 3.6 | -10.4 | -0.2 | 76 | 1.5 | WSW | 63 | 83 | 34 | 45 | - | - | 0.0 |
| 30/07:27pm | 3.6 | -10.7 | 0.1 | 78 | 1.4 | WSW | 65 | 83 | 35 | 45 | - | - | 0.0 |
| 30/07:26pm | 3.5 | -10.8 | 0.2 | 79 | 1.4 | WSW | 65 | 80 | 35 | 43 | - | - | 0.0 |
| 30/07:06pm | 4.0 | -10.6 | 0.5 | 78 | 1.5 | WSW | 67 | 87 | 36 | 47 | - | - | 0.0 |
| 30/07:00pm | 4.0 | -10.6 | 0.7 | 79 | 1.4 | WSW | 67 | 82 | 36 | 44 | - | - | 0.0 |
| 30/06:50pm | 3.7 | -10.5 | 0.9 | 82 | 1.2 | WSW | 65 | 80 | 35 | 43 | - | - | 0.0 |
| 30/06:30pm | 4.2 | -11.0 | 0.5 | 77 | 1.5 | WSW | 70 | 91 | 38 | 49 | - | - | 0.0 |
| 30/06:26pm | 4.6 | -10.7 | -0.2 | 71 | 2.0 | WSW | 70 | 87 | 38 | 47 | - | - | 0.0 |
Latest Capital City Observations: Canberra | Sydney | Melbourne | Brisbane | Adelaide | Perth | Hobart | Darwin
Other formats
Comma delimited format used in spreadsheet applications
http://www.bom.gov.au/fwo/IDT60901/IDT60901.95979.axf
JavaScript Object Notation format (JSON) in row-major order
http://www.bom.gov.au/fwo/IDT60901/IDT60901.95979.json
Data quality
Most of these data are generated automatically and are frequently updated. Quality checks on data are not normally performed. It is possible for incorrect values to appear. Refer to information at About Latest Weather Observations and please check the disclaimer before using these data.
